sensor_id;sensor_type;location;lat;lon;timestamp;temperature;humidity
64843;DHT22;51310;52.198;5.422;2022-11-03T00:01:43;11.00;95.90
64843;DHT22;51310;52.198;5.422;2022-11-03T00:04:13;11.00;96.30
64843;DHT22;51310;52.198;5.422;2022-11-03T00:06:41;11.00;96.50
64843;DHT22;51310;52.198;5.422;2022-11-03T00:09:11;12.40;96.20
64843;DHT22;51310;52.198;5.422;2022-11-03T00:11:40;11.00;95.80
64843;DHT22;51310;52.198;5.422;2022-11-03T00:14:08;13.50;96.30
64843;DHT22;51310;52.198;5.422;2022-11-03T00:16:35;11.00;95.40
64843;DHT22;51310;52.198;5.422;2022-11-03T00:19:02;11.10;95.40
64843;DHT22;51310;52.198;5.422;2022-11-03T00:21:29;11.00;95.40
64843;DHT22;51310;52.198;5.422;2022-11-03T00:23:55;11.10;95.40
64843;DHT22;51310;52.198;5.422;2022-11-03T00:26:25;11.10;95.70
64843;DHT22;51310;52.198;5.422;2022-11-03T00:28:57;11.00;95.30
64843;DHT22;51310;52.198;5.422;2022-11-03T00:31:27;11.10;95.20
64843;DHT22;51310;52.198;5.422;2022-11-03T00:34:02;11.10;95.20
64843;DHT22;51310;52.198;5.422;2022-11-03T00:36:31;11.10;95.20
64843;DHT22;51310;52.198;5.422;2022-11-03T00:38:59;11.10;94.90
64843;DHT22;51310;52.198;5.422;2022-11-03T00:41:27;11.10;94.90
64843;DHT22;51310;52.198;5.422;2022-11-03T00:43:53;11.10;95.00
64843;DHT22;51310;52.198;5.422;2022-11-03T00:46:20;12.70;95.70
64843;DHT22;51310;52.198;5.422;2022-11-03T00:48:48;11.00;95.20
64843;DHT22;51310;52.198;5.422;2022-11-03T00:56:23;11.10;95.30
64843;DHT22;51310;52.198;5.422;2022-11-03T00:58:51;11.00;95.60
64843;DHT22;51310;52.198;5.422;2022-11-03T01:01:23;11.00;96.30
64843;DHT22;51310;52.198;5.422;2022-11-03T01:03:57;13.50;96.40
64843;DHT22;51310;52.198;5.422;2022-11-03T01:06:49;10.90;96.00
64843;DHT22;51310;52.198;5.422;2022-11-03T01:12:14;11.00;96.20
64843;DHT22;51310;52.198;5.422;2022-11-03T01:14:48;11.00;96.00
64843;DHT22;51310;52.198;5.422;2022-11-03T01:17:25;11.00;95.90
64843;DHT22;51310;52.198;5.422;2022-11-03T01:19:52;11.10;96.00
64843;DHT22;51310;52.198;5.422;2022-11-03T01:22:20;11.10;96.20
64843;DHT22;51310;52.198;5.422;2022-11-03T01:24:48;11.20;96.30
64843;DHT22;51310;52.198;5.422;2022-11-03T01:27:17;11.20;95.80
64843;DHT22;51310;52.198;5.422;2022-11-03T01:29:45;11.20;96.10
64843;DHT22;51310;52.198;5.422;2022-11-03T01:32:11;11.20;96.10
64843;DHT22;51310;52.198;5.422;2022-11-03T01:34:37;11.20;95.80
64843;DHT22;51310;52.198;5.422;2022-11-03T01:37:04;11.20;96.20
64843;DHT22;51310;52.198;5.422;2022-11-03T01:39:30;11.20;96.50
64843;DHT22;51310;52.198;5.422;2022-11-03T01:41:56;11.10;96.80
64843;DHT22;51310;52.198;5.422;2022-11-03T01:44:23;11.20;96.70
64843;DHT22;51310;52.198;5.422;2022-11-03T01:47:08;11.20;96.80
64843;DHT22;51310;52.198;5.422;2022-11-03T01:49:59;11.20;96.80
64843;DHT22;51310;52.198;5.422;2022-11-03T01:52:31;11.20;97.20
64843;DHT22;51310;52.198;5.422;2022-11-03T01:55:07;11.20;97.30
64843;DHT22;51310;52.198;5.422;2022-11-03T02:00:20;11.20;98.10
64843;DHT22;51310;52.198;5.422;2022-11-03T02:02:46;11.20;98.00
64843;DHT22;51310;52.198;5.422;2022-11-03T02:05:14;11.10;98.20
64843;DHT22;51310;52.198;5.422;2022-11-03T02:07:50;11.10;98.80
64843;DHT22;51310;52.198;5.422;2022-11-03T02:10:23;11.10;98.70
64843;DHT22;51310;52.198;5.422;2022-11-03T02:12:49;11.00;99.20
64843;DHT22;51310;52.198;5.422;2022-11-03T02:15:17;11.00;99.70
64843;DHT22;51310;52.198;5.422;2022-11-03T02:17:48;11.00;99.60
64843;DHT22;51310;52.198;5.422;2022-11-03T02:20:18;11.00;99.90
64843;DHT22;51310;52.198;5.422;2022-11-03T02:25:57;11.00;99.90
64843;DHT22;51310;52.198;5.422;2022-11-03T02:28:26;11.00;99.90
64843;DHT22;51310;52.198;5.422;2022-11-03T02:34:19;11.00;99.90
64843;DHT22;51310;52.198;5.422;2022-11-03T02:37:02;11.00;99.90
64843;DHT22;51310;52.198;5.422;2022-11-03T02:39:41;11.00;99.90
64843;DHT22;51310;52.198;5.422;2022-11-03T02:42:13;11.00;99.90
64843;DHT22;51310;52.198;5.422;2022-11-03T02:44:42;11.00;99.90
64843;DHT22;51310;52.198;5.422;2022-11-03T02:47:12;11.00;99.90
64843;DHT22;51310;52.198;5.422;2022-11-03T02:49:47;10.90;99.90
64843;DHT22;51310;52.198;5.422;2022-11-03T03:01:09;11.10;99.90
64843;DHT22;51310;52.198;5.422;2022-11-03T03:03:51;11.10;99.90
64843;DHT22;51310;52.198;5.422;2022-11-03T03:06:28;11.10;99.90
64843;DHT22;51310;52.198;5.422;2022-11-03T03:09:02;11.10;99.90
64843;DHT22;51310;52.198;5.422;2022-11-03T03:11:33;11.10;99.90
64843;DHT22;51310;52.198;5.422;2022-11-03T03:14:11;11.20;99.90
64843;DHT22;51310;52.198;5.422;2022-11-03T03:22:44;11.20;99.90
64843;DHT22;51310;52.198;5.422;2022-11-03T03:25:27;11.30;99.90
64843;DHT22;51310;52.198;5.422;2022-11-03T03:28:12;11.30;99.90
64843;DHT22;51310;52.198;5.422;2022-11-03T03:30:53;11.30;99.90
64843;DHT22;51310;52.198;5.422;2022-11-03T03:33:24;11.30;99.90
64843;DHT22;51310;52.198;5.422;2022-11-03T03:35:53;11.30;99.90
64843;DHT22;51310;52.198;5.422;2022-11-03T03:38:28;11.30;99.90
64843;DHT22;51310;52.198;5.422;2022-11-03T03:41:00;11.40;99.90
64843;DHT22;51310;52.198;5.422;2022-11-03T03:43:31;11.40;99.90
64843;DHT22;51310;52.198;5.422;2022-11-03T03:46:05;11.50;99.90
64843;DHT22;51310;52.198;5.422;2022-11-03T03:48:34;11.50;99.90
64843;DHT22;51310;52.198;5.422;2022-11-03T03:51:01;11.50;99.90
64843;DHT22;51310;52.198;5.422;2022-11-03T03:53:29;11.50;99.90
64843;DHT22;51310;52.198;5.422;2022-11-03T03:55:57;11.50;99.90
64843;DHT22;51310;52.198;5.422;2022-11-03T03:58:23;11.60;99.90
64843;DHT22;51310;52.198;5.422;2022-11-03T04:00:49;11.50;99.90
64843;DHT22;51310;52.198;5.422;2022-11-03T04:03:19;11.50;99.90
64843;DHT22;51310;52.198;5.422;2022-11-03T04:05:48;11.50;99.90
64843;DHT22;51310;52.198;5.422;2022-11-03T04:08:15;11.50;99.90
64843;DHT22;51310;52.198;5.422;2022-11-03T04:10:42;11.50;99.90
64843;DHT22;51310;52.198;5.422;2022-11-03T04:13:29;11.60;99.90
64843;DHT22;51310;52.198;5.422;2022-11-03T04:16:14;11.60;99.90
64843;DHT22;51310;52.198;5.422;2022-11-03T04:18:59;11.60;99.90
64843;DHT22;51310;52.198;5.422;2022-11-03T04:21:44;11.60;99.90
64843;DHT22;51310;52.198;5.422;2022-11-03T04:24:28;11.60;99.90
64843;DHT22;51310;52.198;5.422;2022-11-03T04:27:00;11.60;99.90
64843;DHT22;51310;52.198;5.422;2022-11-03T04:29:37;11.70;99.90
64843;DHT22;51310;52.198;5.422;2022-11-03T04:32:13;11.60;99.90
64843;DHT22;51310;52.198;5.422;2022-11-03T04:34:41;11.50;99.90
64843;DHT22;51310;52.198;5.422;2022-11-03T04:37:14;11.50;99.90
64843;DHT22;51310;52.198;5.422;2022-11-03T04:39:41;11.50;99.90
64843;DHT22;51310;52.198;5.422;2022-11-03T04:42:16;11.50;99.90
64843;DHT22;51310;52.198;5.422;2022-11-03T04:44:45;11.60;99.90
64843;DHT22;51310;52.198;5.422;2022-11-03T04:47:14;11.50;99.90
64843;DHT22;51310;52.198;5.422;2022-11-03T04:49:43;11.50;99.90
64843;DHT22;51310;52.198;5.422;2022-11-03T04:52:17;11.40;99.90
64843;DHT22;51310;52.198;5.422;2022-11-03T04:54:46;11.70;99.90
64843;DHT22;51310;52.198;5.422;2022-11-03T04:57:16;11.40;99.90
64843;DHT22;51310;52.198;5.422;2022-11-03T04:59:45;11.40;99.90
64843;DHT22;51310;52.198;5.422;2022-11-03T05:02:16;11.40;99.90
64843;DHT22;51310;52.198;5.422;2022-11-03T05:04:45;11.30;99.90
64843;DHT22;51310;52.198;5.422;2022-11-03T05:07:33;11.30;99.90
64843;DHT22;51310;52.198;5.422;2022-11-03T05:10:01;11.30;99.90
64843;DHT22;51310;52.198;5.422;2022-11-03T05:12:29;11.30;99.90
64843;DHT22;51310;52.198;5.422;2022-11-03T05:14:55;11.30;99.90
64843;DHT22;51310;52.198;5.422;2022-11-03T05:17:24;11.30;99.90
64843;DHT22;51310;52.198;5.422;2022-11-03T05:20:00;11.30;99.90
64843;DHT22;51310;52.198;5.422;2022-11-03T05:22:34;11.20;99.90
64843;DHT22;51310;52.198;5.422;2022-11-03T05:25:21;11.20;99.90
64843;DHT22;51310;52.198;5.422;2022-11-03T05:28:15;11.20;99.90
64843;DHT22;51310;52.198;5.422;2022-11-03T05:30:51;11.20;99.90
64843;DHT22;51310;52.198;5.422;2022-11-03T05:33:33;11.20;99.90
64843;DHT22;51310;52.198;5.422;2022-11-03T05:36:06;11.30;99.90
64843;DHT22;51310;52.198;5.422;2022-11-03T05:38:38;11.30;99.90
64843;DHT22;51310;52.198;5.422;2022-11-03T05:41:10;11.20;99.90
64843;DHT22;51310;52.198;5.422;2022-11-03T05:43:44;11.30;99.90
64843;DHT22;51310;52.198;5.422;2022-11-03T05:46:18;11.30;99.90
64843;DHT22;51310;52.198;5.422;2022-11-03T05:48:44;11.30;99.90
64843;DHT22;51310;52.198;5.422;2022-11-03T05:51:20;11.30;99.90
64843;DHT22;51310;52.198;5.422;2022-11-03T05:53:52;11.30;99.90
64843;DHT22;51310;52.198;5.422;2022-11-03T05:56:24;11.30;99.90
64843;DHT22;51310;52.198;5.422;2022-11-03T05:58:52;11.30;99.90
64843;DHT22;51310;52.198;5.422;2022-11-03T06:01:31;13.20;99.90
64843;DHT22;51310;52.198;5.422;2022-11-03T06:04:11;11.40;99.90
64843;DHT22;51310;52.198;5.422;2022-11-03T06:07:00;11.40;99.90
64843;DHT22;51310;52.198;5.422;2022-11-03T06:09:32;11.40;99.90
64843;DHT22;51310;52.198;5.422;2022-11-03T06:12:00;11.40;99.90
64843;DHT22;51310;52.198;5.422;2022-11-03T06:14:30;11.50;99.90
64843;DHT22;51310;52.198;5.422;2022-11-03T06:17:04;11.50;99.90
64843;DHT22;51310;52.198;5.422;2022-11-03T06:19:36;11.50;99.90
64843;DHT22;51310;52.198;5.422;2022-11-03T06:22:18;11.50;99.90
64843;DHT22;51310;52.198;5.422;2022-11-03T06:24:49;11.60;99.90
64843;DHT22;51310;52.198;5.422;2022-11-03T06:27:21;13.00;99.90
64843;DHT22;51310;52.198;5.422;2022-11-03T06:29:56;11.60;99.90
64843;DHT22;51310;52.198;5.422;2022-11-03T06:32:24;10.40;99.90
64843;DHT22;51310;52.198;5.422;2022-11-03T06:34:56;11.60;99.90
64843;DHT22;51310;52.198;5.422;2022-11-03T06:37:41;11.60;99.90
64843;DHT22;51310;52.198;5.422;2022-11-03T06:42:40;11.60;99.90
64843;DHT22;51310;52.198;5.422;2022-11-03T06:45:24;11.60;99.90
64843;DHT22;51310;52.198;5.422;2022-11-03T06:47:53;11.60;99.90
64843;DHT22;51310;52.198;5.422;2022-11-03T06:50:30;11.60;99.90
64843;DHT22;51310;52.198;5.422;2022-11-03T06:52:58;11.60;99.90
64843;DHT22;51310;52.198;5.422;2022-11-03T06:55:32;12.60;99.90
64843;DHT22;51310;52.198;5.422;2022-11-03T06:58:12;12.20;99.90
64843;DHT22;51310;52.198;5.422;2022-11-03T07:00:57;11.70;99.90
64843;DHT22;51310;52.198;5.422;2022-11-03T07:03:27;11.70;99.90
64843;DHT22;51310;52.198;5.422;2022-11-03T07:05:59;12.50;99.90
64843;DHT22;51310;52.198;5.422;2022-11-03T07:08:53;11.70;99.90
64843;DHT22;51310;52.198;5.422;2022-11-03T07:11:28;11.80;99.90
64843;DHT22;51310;52.198;5.422;2022-11-03T07:14:00;11.80;99.90
64843;DHT22;51310;52.198;5.422;2022-11-03T07:16:58;11.80;99.90
64843;DHT22;51310;52.198;5.422;2022-11-03T07:19:29;11.90;99.90
64843;DHT22;51310;52.198;5.422;2022-11-03T07:22:02;11.90;99.90
64843;DHT22;51310;52.198;5.422;2022-11-03T07:24:51;11.90;99.90
64843;DHT22;51310;52.198;5.422;2022-11-03T07:29:47;12.10;99.90
64843;DHT22;51310;52.198;5.422;2022-11-03T07:32:18;12.00;99.90
64843;DHT22;51310;52.198;5.422;2022-11-03T07:34:48;12.10;99.90
64843;DHT22;51310;52.198;5.422;2022-11-03T07:37:20;13.10;99.90
64843;DHT22;51310;52.198;5.422;2022-11-03T07:39:49;12.10;99.90
64843;DHT22;51310;52.198;5.422;2022-11-03T07:42:21;12.10;99.90
64843;DHT22;51310;52.198;5.422;2022-11-03T07:44:49;12.20;99.90
64843;DHT22;51310;52.198;5.422;2022-11-03T07:47:22;14.00;99.90
64843;DHT22;51310;52.198;5.422;2022-11-03T07:49:56;12.20;99.90
64843;DHT22;51310;52.198;5.422;2022-11-03T07:52:23;13.00;99.90
64843;DHT22;51310;52.198;5.422;2022-11-03T07:54:53;12.30;99.90
64843;DHT22;51310;52.198;5.422;2022-11-03T07:57:30;12.30;99.90
64843;DHT22;51310;52.198;5.422;2022-11-03T08:00:00;12.30;99.90
64843;DHT22;51310;52.198;5.422;2022-11-03T08:02:37;12.30;99.90
64843;DHT22;51310;52.198;5.422;2022-11-03T08:05:13;12.40;99.90
64843;DHT22;51310;52.198;5.422;2022-11-03T08:07:39;12.50;99.90
64843;DHT22;51310;52.198;5.422;2022-11-03T08:10:05;12.60;99.90
64843;DHT22;51310;52.198;5.422;2022-11-03T08:12:32;12.50;99.90
64843;DHT22;51310;52.198;5.422;2022-11-03T08:14:57;13.00;99.90
64843;DHT22;51310;52.198;5.422;2022-11-03T08:17:23;12.50;99.90
64843;DHT22;51310;52.198;5.422;2022-11-03T08:19:49;14.10;99.90
64843;DHT22;51310;52.198;5.422;2022-11-03T08:22:15;12.50;99.90
64843;DHT22;51310;52.198;5.422;2022-11-03T08:24:41;12.50;99.90
64843;DHT22;51310;52.198;5.422;2022-11-03T08:27:07;12.60;99.90
64843;DHT22;51310;52.198;5.422;2022-11-03T08:29:33;12.60;99.90
64843;DHT22;51310;52.198;5.422;2022-11-03T08:31:58;13.70;99.90
64843;DHT22;51310;52.198;5.422;2022-11-03T08:34:24;12.70;99.90
64843;DHT22;51310;52.198;5.422;2022-11-03T08:36:50;12.70;99.90
64843;DHT22;51310;52.198;5.422;2022-11-03T08:39:16;13.40;99.90
64843;DHT22;51310;52.198;5.422;2022-11-03T08:41:42;12.80;99.90
64843;DHT22;51310;52.198;5.422;2022-11-03T08:44:08;12.80;99.90
64843;DHT22;51310;52.198;5.422;2022-11-03T08:46:33;12.80;99.90
64843;DHT22;51310;52.198;5.422;2022-11-03T08:48:59;12.90;99.90
64843;DHT22;51310;52.198;5.422;2022-11-03T08:51:25;12.90;99.90
64843;DHT22;51310;52.198;5.422;2022-11-03T08:53:51;12.80;99.90
64843;DHT22;51310;52.198;5.422;2022-11-03T08:56:19;12.90;99.90
64843;DHT22;51310;52.198;5.422;2022-11-03T08:58:46;14.50;99.90
64843;DHT22;51310;52.198;5.422;2022-11-03T09:01:12;12.90;99.90
64843;DHT22;51310;52.198;5.422;2022-11-03T09:03:39;12.90;99.90
64843;DHT22;51310;52.198;5.422;2022-11-03T09:06:06;13.00;99.90
64843;DHT22;51310;52.198;5.422;2022-11-03T09:08:32;13.10;99.90
64843;DHT22;51310;52.198;5.422;2022-11-03T09:10:58;13.00;99.90
64843;DHT22;51310;52.198;5.422;2022-11-03T09:13:24;13.10;99.90
64843;DHT22;51310;52.198;5.422;2022-11-03T09:15:50;13.90;99.90
64843;DHT22;51310;52.198;5.422;2022-11-03T09:18:17;13.20;99.90
64843;DHT22;51310;52.198;5.422;2022-11-03T09:20:42;13.40;99.90
64843;DHT22;51310;52.198;5.422;2022-11-03T09:23:08;15.30;99.90
64843;DHT22;51310;52.198;5.422;2022-11-03T09:25:34;13.50;99.90
64843;DHT22;51310;52.198;5.422;2022-11-03T09:28:00;13.50;99.90
64843;DHT22;51310;52.198;5.422;2022-11-03T09:30:26;13.60;99.90
64843;DHT22;51310;52.198;5.422;2022-11-03T09:32:53;14.10;99.90
64843;DHT22;51310;52.198;5.422;2022-11-03T09:35:18;13.70;99.90
64843;DHT22;51310;52.198;5.422;2022-11-03T09:37:44;13.70;99.90
64843;DHT22;51310;52.198;5.422;2022-11-03T09:40:13;14.60;99.90
64843;DHT22;51310;52.198;5.422;2022-11-03T09:42:41;13.80;99.80
64843;DHT22;51310;52.198;5.422;2022-11-03T09:45:09;13.80;99.70
64843;DHT22;51310;52.198;5.422;2022-11-03T09:47:38;13.80;99.10
64843;DHT22;51310;52.198;5.422;2022-11-03T09:50:14;13.70;98.40
64843;DHT22;51310;52.198;5.422;2022-11-03T09:52:43;13.80;98.80
64843;DHT22;51310;52.198;5.422;2022-11-03T09:55:16;13.80;98.50
64843;DHT22;51310;52.198;5.422;2022-11-03T09:57:48;13.80;98.60
64843;DHT22;51310;52.198;5.422;2022-11-03T10:00:23;13.90;98.60
64843;DHT22;51310;52.198;5.422;2022-11-03T10:02:51;14.00;98.20
64843;DHT22;51310;52.198;5.422;2022-11-03T10:05:25;13.90;97.60
64843;DHT22;51310;52.198;5.422;2022-11-03T10:07:57;14.00;97.30
64843;DHT22;51310;52.198;5.422;2022-11-03T10:10:28;15.50;97.60
64843;DHT22;51310;52.198;5.422;2022-11-03T10:12:56;14.10;96.50
64843;DHT22;51310;52.198;5.422;2022-11-03T10:15:24;17.20;97.40
64843;DHT22;51310;52.198;5.422;2022-11-03T10:17:52;14.20;96.50
64843;DHT22;51310;52.198;5.422;2022-11-03T10:20:21;14.20;95.80
64843;DHT22;51310;52.198;5.422;2022-11-03T10:22:51;14.20;95.70
64843;DHT22;51310;52.198;5.422;2022-11-03T10:25:40;15.50;95.70
64843;DHT22;51310;52.198;5.422;2022-11-03T10:28:20;14.20;95.20
64843;DHT22;51310;52.198;5.422;2022-11-03T10:31:04;14.20;95.00
64843;DHT22;51310;52.198;5.422;2022-11-03T10:33:53;14.20;94.90
64843;DHT22;51310;52.198;5.422;2022-11-03T10:36:23;14.20;94.80
64843;DHT22;51310;52.198;5.422;2022-11-03T10:38:54;15.60;94.80
64843;DHT22;51310;52.198;5.422;2022-11-03T10:41:26;14.20;94.30
64843;DHT22;51310;52.198;5.422;2022-11-03T10:44:03;14.20;94.30
64843;DHT22;51310;52.198;5.422;2022-11-03T10:46:36;16.10;94.70
64843;DHT22;51310;52.198;5.422;2022-11-03T10:49:14;14.30;93.90
64843;DHT22;51310;52.198;5.422;2022-11-03T10:51:46;14.20;93.70
64843;DHT22;51310;52.198;5.422;2022-11-03T10:54:17;14.20;93.50
64843;DHT22;51310;52.198;5.422;2022-11-03T10:56:47;15.80;94.00
64843;DHT22;51310;52.198;5.422;2022-11-03T11:01:49;14.30;92.90
64843;DHT22;51310;52.198;5.422;2022-11-03T11:04:16;15.00;92.90
64843;DHT22;51310;52.198;5.422;2022-11-03T11:06:44;14.40;92.80
64843;DHT22;51310;52.198;5.422;2022-11-03T11:09:13;14.40;92.50
64843;DHT22;51310;52.198;5.422;2022-11-03T11:14:58;14.50;92.20
64843;DHT22;51310;52.198;5.422;2022-11-03T11:17:41;14.50;92.10
64843;DHT22;51310;52.198;5.422;2022-11-03T11:28:45;14.60;91.50
64843;DHT22;51310;52.198;5.422;2022-11-03T11:31:40;14.60;91.40
64843;DHT22;51310;52.198;5.422;2022-11-03T11:36:46;14.60;90.80
64843;DHT22;51310;52.198;5.422;2022-11-03T11:42:15;14.80;90.70
64843;DHT22;51310;52.198;5.422;2022-11-03T11:50:23;14.80;89.30
64843;DHT22;51310;52.198;5.422;2022-11-03T11:53:12;14.90;88.30
64843;DHT22;51310;52.198;5.422;2022-11-03T11:55:57;15.00;88.20
64843;DHT22;51310;52.198;5.422;2022-11-03T12:01:27;15.00;87.20
64843;DHT22;51310;52.198;5.422;2022-11-03T12:03:59;15.10;87.10
64843;DHT22;51310;52.198;5.422;2022-11-03T12:06:35;15.20;86.80
64843;DHT22;51310;52.198;5.422;2022-11-03T12:09:14;15.20;85.00
64843;DHT22;51310;52.198;5.422;2022-11-03T12:11:48;15.20;84.80
64843;DHT22;51310;52.198;5.422;2022-11-03T12:14:35;15.30;82.90
64843;DHT22;51310;52.198;5.422;2022-11-03T12:19:47;15.30;81.30
64843;DHT22;51310;52.198;5.422;2022-11-03T12:29:57;15.40;80.90
64843;DHT22;51310;52.198;5.422;2022-11-03T12:32:26;15.40;80.60
64843;DHT22;51310;52.198;5.422;2022-11-03T12:34:52;15.40;80.40
64843;DHT22;51310;52.198;5.422;2022-11-03T12:37:21;15.50;79.60
64843;DHT22;51310;52.198;5.422;2022-11-03T12:39:47;15.50;79.70
64843;DHT22;51310;52.198;5.422;2022-11-03T12:42:13;15.50;78.60
64843;DHT22;51310;52.198;5.422;2022-11-03T12:44:39;15.60;76.90
64843;DHT22;51310;52.198;5.422;2022-11-03T12:47:05;15.70;75.90
64843;DHT22;51310;52.198;5.422;2022-11-03T12:49:31;15.60;76.30
64843;DHT22;51310;52.198;5.422;2022-11-03T12:51:57;15.50;76.10
64843;DHT22;51310;52.198;5.422;2022-11-03T12:54:31;17.10;77.90
64843;DHT22;51310;52.198;5.422;2022-11-03T12:56:58;15.30;78.50
64843;DHT22;51310;52.198;5.422;2022-11-03T12:59:25;15.20;78.60
64843;DHT22;51310;52.198;5.422;2022-11-03T13:01:50;16.50;80.40
64843;DHT22;51310;52.198;5.422;2022-11-03T13:04:16;15.10;79.40
64843;DHT22;51310;52.198;5.422;2022-11-03T13:06:42;15.30;80.20
64843;DHT22;51310;52.198;5.422;2022-11-03T13:09:08;15.60;79.70
64843;DHT22;51310;52.198;5.422;2022-11-03T13:11:34;16.20;78.20
64843;DHT22;51310;52.198;5.422;2022-11-03T13:14:18;16.30;76.50
64843;DHT22;51310;52.198;5.422;2022-11-03T13:16:44;16.20;74.00
64843;DHT22;51310;52.198;5.422;2022-11-03T13:19:10;16.20;72.40
64843;DHT22;51310;52.198;5.422;2022-11-03T13:21:36;18.30;71.10
64843;DHT22;51310;52.198;5.422;2022-11-03T13:24:02;16.30;70.60
64843;DHT22;51310;52.198;5.422;2022-11-03T13:26:29;16.30;68.70
64843;DHT22;51310;52.198;5.422;2022-11-03T13:28:55;16.20;68.30
64843;DHT22;51310;52.198;5.422;2022-11-03T13:31:20;16.20;69.10
64843;DHT22;51310;52.198;5.422;2022-11-03T13:33:46;15.90;69.90
64843;DHT22;51310;52.198;5.422;2022-11-03T13:36:12;15.80;73.00
64843;DHT22;51310;52.198;5.422;2022-11-03T13:38:38;15.70;72.60
64843;DHT22;51310;52.198;5.422;2022-11-03T13:41:04;15.70;74.40
64843;DHT22;51310;52.198;5.422;2022-11-03T13:43:30;15.70;74.10
64843;DHT22;51310;52.198;5.422;2022-11-03T13:45:56;15.70;73.90
64843;DHT22;51310;52.198;5.422;2022-11-03T13:48:26;15.60;74.60
64843;DHT22;51310;52.198;5.422;2022-11-03T13:50:53;15.50;74.00
64843;DHT22;51310;52.198;5.422;2022-11-03T13:53:20;15.50;74.90
64843;DHT22;51310;52.198;5.422;2022-11-03T13:55:46;15.50;75.40
64843;DHT22;51310;52.198;5.422;2022-11-03T13:58:12;15.50;74.80
64843;DHT22;51310;52.198;5.422;2022-11-03T14:00:37;16.80;75.50
64843;DHT22;51310;52.198;5.422;2022-11-03T14:03:03;15.60;74.80
64843;DHT22;51310;52.198;5.422;2022-11-03T14:05:30;15.50;74.20
64843;DHT22;51310;52.198;5.422;2022-11-03T14:07:56;15.50;75.10
64843;DHT22;51310;52.198;5.422;2022-11-03T14:10:22;15.30;74.40
64843;DHT22;51310;52.198;5.422;2022-11-03T14:12:48;15.30;75.50
64843;DHT22;51310;52.198;5.422;2022-11-03T14:15:14;15.30;75.40
64843;DHT22;51310;52.198;5.422;2022-11-03T14:17:40;15.20;76.50
64843;DHT22;51310;52.198;5.422;2022-11-03T14:20:08;15.20;76.80
64843;DHT22;51310;52.198;5.422;2022-11-03T14:22:36;15.10;77.50
64843;DHT22;51310;52.198;5.422;2022-11-03T14:25:03;15.10;77.60
64843;DHT22;51310;52.198;5.422;2022-11-03T14:27:29;15.00;77.80
64843;DHT22;51310;52.198;5.422;2022-11-03T14:29:55;15.00;78.40
64843;DHT22;51310;52.198;5.422;2022-11-03T14:32:21;15.10;78.40
64843;DHT22;51310;52.198;5.422;2022-11-03T14:34:47;16.20;78.80
64843;DHT22;51310;52.198;5.422;2022-11-03T14:37:13;18.20;80.00
64843;DHT22;51310;52.198;5.422;2022-11-03T14:39:40;15.00;78.40
64843;DHT22;51310;52.198;5.422;2022-11-03T14:42:10;16.50;79.10
64843;DHT22;51310;52.198;5.422;2022-11-03T14:44:42;15.10;78.50
64843;DHT22;51310;52.198;5.422;2022-11-03T14:47:11;15.00;79.00
64843;DHT22;51310;52.198;5.422;2022-11-03T14:49:43;16.00;79.80
64843;DHT22;51310;52.198;5.422;2022-11-03T14:52:10;14.90;79.70
64843;DHT22;51310;52.198;5.422;2022-11-03T14:54:36;14.90;79.80
64843;DHT22;51310;52.198;5.422;2022-11-03T14:57:02;14.70;81.40
64843;DHT22;51310;52.198;5.422;2022-11-03T14:59:29;14.80;81.10
64843;DHT22;51310;52.198;5.422;2022-11-03T15:01:56;14.70;81.60
64843;DHT22;51310;52.198;5.422;2022-11-03T15:04:23;14.70;83.10
64843;DHT22;51310;52.198;5.422;2022-11-03T15:06:49;14.60;84.10
64843;DHT22;51310;52.198;5.422;2022-11-03T15:09:15;14.80;84.60
64843;DHT22;51310;52.198;5.422;2022-11-03T15:11:42;14.50;85.40
64843;DHT22;51310;52.198;5.422;2022-11-03T15:14:09;14.50;85.00
64843;DHT22;51310;52.198;5.422;2022-11-03T15:16:36;14.50;84.20
64843;DHT22;51310;52.198;5.422;2022-11-03T15:19:03;15.40;84.60
64843;DHT22;51310;52.198;5.422;2022-11-03T15:21:31;14.40;84.80
64843;DHT22;51310;52.198;5.422;2022-11-03T15:23:57;14.40;84.70
64843;DHT22;51310;52.198;5.422;2022-11-03T15:26:23;14.30;85.10
64843;DHT22;51310;52.198;5.422;2022-11-03T15:28:49;14.30;85.40
64843;DHT22;51310;52.198;5.422;2022-11-03T15:31:15;14.30;86.90
64843;DHT22;51310;52.198;5.422;2022-11-03T15:33:41;14.20;88.20
64843;DHT22;51310;52.198;5.422;2022-11-03T15:36:07;14.10;89.20
64843;DHT22;51310;52.198;5.422;2022-11-03T15:38:34;14.10;90.10
64843;DHT22;51310;52.198;5.422;2022-11-03T15:41:00;14.10;90.30
64843;DHT22;51310;52.198;5.422;2022-11-03T15:43:42;14.00;90.80
64843;DHT22;51310;52.198;5.422;2022-11-03T15:46:10;15.90;91.30
64843;DHT22;51310;52.198;5.422;2022-11-03T15:48:37;14.00;91.00
64843;DHT22;51310;52.198;5.422;2022-11-03T15:51:03;14.00;91.40
64843;DHT22;51310;52.198;5.422;2022-11-03T15:53:29;14.00;91.30
64843;DHT22;51310;52.198;5.422;2022-11-03T15:55:55;13.90;91.80
64843;DHT22;51310;52.198;5.422;2022-11-03T15:58:21;13.90;92.30
64843;DHT22;51310;52.198;5.422;2022-11-03T16:00:47;15.70;92.90
64843;DHT22;51310;52.198;5.422;2022-11-03T16:03:13;15.60;93.30
64843;DHT22;51310;52.198;5.422;2022-11-03T16:05:39;13.70;93.10
64843;DHT22;51310;52.198;5.422;2022-11-03T16:08:04;13.70;93.30
64843;DHT22;51310;52.198;5.422;2022-11-03T16:10:30;13.70;93.50
64843;DHT22;51310;52.198;5.422;2022-11-03T16:12:56;13.70;93.80
64843;DHT22;51310;52.198;5.422;2022-11-03T16:15:22;15.60;94.40
64843;DHT22;51310;52.198;5.422;2022-11-03T16:17:48;13.70;94.30
64843;DHT22;51310;52.198;5.422;2022-11-03T16:20:13;13.60;94.60
64843;DHT22;51310;52.198;5.422;2022-11-03T16:22:39;13.60;95.30
64843;DHT22;51310;52.198;5.422;2022-11-03T16:25:06;13.60;95.80
64843;DHT22;51310;52.198;5.422;2022-11-03T16:27:32;13.50;96.90
64843;DHT22;51310;52.198;5.422;2022-11-03T16:29:58;13.50;98.30
64843;DHT22;51310;52.198;5.422;2022-11-03T16:32:24;13.40;99.10
64843;DHT22;51310;52.198;5.422;2022-11-03T16:34:50;13.30;99.90
64843;DHT22;51310;52.198;5.422;2022-11-03T16:37:16;13.30;99.90
64843;DHT22;51310;52.198;5.422;2022-11-03T16:39:42;13.30;99.90
64843;DHT22;51310;52.198;5.422;2022-11-03T16:42:08;13.30;99.90
64843;DHT22;51310;52.198;5.422;2022-11-03T16:44:34;13.20;99.90
64843;DHT22;51310;52.198;5.422;2022-11-03T16:47:00;13.20;99.90
64843;DHT22;51310;52.198;5.422;2022-11-03T16:49:26;13.20;99.90
64843;DHT22;51310;52.198;5.422;2022-11-03T16:51:52;14.70;99.90
64843;DHT22;51310;52.198;5.422;2022-11-03T16:54:18;13.90;99.90
64843;DHT22;51310;52.198;5.422;2022-11-03T16:56:44;13.10;99.90
64843;DHT22;51310;52.198;5.422;2022-11-03T16:59:10;13.10;99.90
64843;DHT22;51310;52.198;5.422;2022-11-03T17:01:35;13.10;99.90
64843;DHT22;51310;52.198;5.422;2022-11-03T17:04:03;13.00;99.90
64843;DHT22;51310;52.198;5.422;2022-11-03T17:06:29;15.10;99.90